createdAt,value
2023-04-18T00:01:00.000Z,0
2023-04-18T00:02:01.000Z,0
2023-04-18T00:03:01.000Z,0
2023-04-18T00:04:02.000Z,0
2023-04-18T00:05:03.000Z,0
2023-04-18T00:06:04.000Z,0
2023-04-18T00:07:04.000Z,0
2023-04-18T00:08:05.000Z,0
2023-04-18T00:09:06.000Z,0
2023-04-18T00:10:07.000Z,0
2023-04-18T00:11:07.000Z,0
2023-04-18T00:12:08.000Z,0
2023-04-18T00:13:09.000Z,0
2023-04-18T00:14:10.000Z,0
2023-04-18T00:15:10.000Z,0
2023-04-18T00:16:11.000Z,0
2023-04-18T00:17:12.000Z,0
2023-04-18T00:18:13.000Z,0
2023-04-18T00:19:13.000Z,0
2023-04-18T00:20:14.000Z,0
2023-04-18T00:21:15.000Z,0
2023-04-18T00:22:15.000Z,0
2023-04-18T00:23:16.000Z,0
2023-04-18T00:24:17.000Z,0
2023-04-18T00:25:18.000Z,0
2023-04-18T00:26:18.000Z,0
2023-04-18T00:27:19.000Z,0
2023-04-18T00:28:20.000Z,0
2023-04-18T00:29:21.000Z,0
2023-04-18T00:30:21.000Z,0
2023-04-18T00:31:22.000Z,0
2023-04-18T00:32:23.000Z,0
2023-04-18T00:33:23.000Z,0
2023-04-18T00:34:24.000Z,0
2023-04-18T00:35:25.000Z,0
2023-04-18T00:36:26.000Z,0
2023-04-18T00:37:26.000Z,0
2023-04-18T00:38:27.000Z,0
2023-04-18T00:39:28.000Z,0
2023-04-18T00:40:28.000Z,0
2023-04-18T00:41:29.000Z,0
2023-04-18T00:42:30.000Z,0
2023-04-18T00:43:31.000Z,0
2023-04-18T00:44:31.000Z,0
2023-04-18T00:45:32.000Z,0
2023-04-18T00:46:33.000Z,0
2023-04-18T00:47:34.000Z,0
2023-04-18T00:48:34.000Z,0
2023-04-18T00:49:35.000Z,0
2023-04-18T00:50:36.000Z,0
2023-04-18T00:51:36.000Z,0
2023-04-18T00:52:37.000Z,0
2023-04-18T00:53:38.000Z,0
2023-04-18T00:54:39.000Z,0
2023-04-18T00:55:39.000Z,0
2023-04-18T00:56:40.000Z,0
2023-04-18T00:57:41.000Z,0
2023-04-18T00:58:42.000Z,0
2023-04-18T00:59:42.000Z,0
2023-04-18T01:00:43.000Z,0
2023-04-18T01:01:44.000Z,0
2023-04-18T01:02:45.000Z,0
2023-04-18T01:03:45.000Z,0
2023-04-18T01:04:46.000Z,0
2023-04-18T01:05:47.000Z,0
2023-04-18T01:06:48.000Z,0
2023-04-18T01:07:48.000Z,0
2023-04-18T01:08:49.000Z,0
2023-04-18T01:09:50.000Z,0
2023-04-18T01:10:51.000Z,0
2023-04-18T01:11:51.000Z,0
2023-04-18T01:12:52.000Z,0
2023-04-18T01:13:53.000Z,0
2023-04-18T01:14:53.000Z,0
2023-04-18T01:15:54.000Z,0
2023-04-18T01:16:55.000Z,0
2023-04-18T01:17:56.000Z,0
2023-04-18T01:18:56.000Z,0
2023-04-18T01:19:57.000Z,0
2023-04-18T01:20:58.000Z,0
2023-04-18T01:21:59.000Z,0
2023-04-18T01:22:59.000Z,0
2023-04-18T01:24:00.000Z,0
2023-04-18T01:25:01.000Z,0
2023-04-18T01:26:02.000Z,0
2023-04-18T01:27:02.000Z,0
2023-04-18T01:28:03.000Z,0
2023-04-18T01:29:04.000Z,0
2023-04-18T01:30:05.000Z,0
2023-04-18T01:31:05.000Z,0
2023-04-18T01:32:06.000Z,0
2023-04-18T01:33:07.000Z,0
2023-04-18T01:34:08.000Z,0
2023-04-18T01:35:08.000Z,0
2023-04-18T01:36:09.000Z,0
2023-04-18T01:37:10.000Z,0
2023-04-18T01:38:11.000Z,0
2023-04-18T01:39:11.000Z,0
2023-04-18T01:40:12.000Z,0
2023-04-18T01:41:13.000Z,0
2023-04-18T01:42:13.000Z,0
2023-04-18T01:43:14.000Z,0
2023-04-18T01:44:15.000Z,0
2023-04-18T01:45:16.000Z,0
2023-04-18T01:46:16.000Z,0
2023-04-18T01:47:17.000Z,0
2023-04-18T01:48:18.000Z,0
2023-04-18T01:49:19.000Z,0
2023-04-18T01:50:20.000Z,0
2023-04-18T01:51:20.000Z,0
2023-04-18T01:52:21.000Z,0
2023-04-18T01:53:22.000Z,0
2023-04-18T01:54:22.000Z,0
2023-04-18T01:55:23.000Z,0
2023-04-18T01:56:24.000Z,0
2023-04-18T01:57:25.000Z,0
2023-04-18T01:58:25.000Z,0
2023-04-18T01:59:26.000Z,0
2023-04-18T02:00:27.000Z,0
2023-04-18T02:01:28.000Z,0
2023-04-18T02:02:28.000Z,0
2023-04-18T02:03:29.000Z,0
2023-04-18T02:04:30.000Z,0
2023-04-18T02:05:31.000Z,0
2023-04-18T02:06:31.000Z,0
2023-04-18T02:07:32.000Z,0
2023-04-18T02:08:33.000Z,0
2023-04-18T02:09:34.000Z,0
2023-04-18T02:10:34.000Z,0
2023-04-18T02:11:35.000Z,0
2023-04-18T02:12:36.000Z,0
2023-04-18T02:13:37.000Z,0
2023-04-18T02:14:37.000Z,0
2023-04-18T02:15:38.000Z,0
2023-04-18T02:16:39.000Z,0
2023-04-18T02:17:40.000Z,0
2023-04-18T02:18:40.000Z,0
2023-04-18T02:19:41.000Z,0
2023-04-18T02:20:42.000Z,0
2023-04-18T02:21:43.000Z,0
2023-04-18T02:22:43.000Z,0
2023-04-18T02:23:44.000Z,0
2023-04-18T02:24:45.000Z,0
2023-04-18T02:25:46.000Z,0
2023-04-18T02:26:46.000Z,0
2023-04-18T02:27:47.000Z,0
2023-04-18T02:28:48.000Z,0
2023-04-18T02:29:48.000Z,0
2023-04-18T02:30:49.000Z,0
2023-04-18T02:31:50.000Z,0
2023-04-18T02:32:51.000Z,0
2023-04-18T02:33:51.000Z,0
2023-04-18T02:34:52.000Z,0
2023-04-18T02:35:53.000Z,0
2023-04-18T02:36:54.000Z,0
2023-04-18T02:37:54.000Z,0
2023-04-18T02:38:55.000Z,0
2023-04-18T02:39:56.000Z,0
2023-04-18T02:40:57.000Z,0
2023-04-18T02:41:58.000Z,0
2023-04-18T02:42:58.000Z,0
2023-04-18T02:43:59.000Z,0
2023-04-18T02:45:00.000Z,0
2023-04-18T02:46:01.000Z,0
2023-04-18T02:47:01.000Z,0
2023-04-18T02:48:02.000Z,0
2023-04-18T02:49:03.000Z,0
2023-04-18T02:50:03.000Z,0
2023-04-18T02:51:04.000Z,0
2023-04-18T02:52:05.000Z,0
2023-04-18T02:53:06.000Z,0
2023-04-18T02:54:07.000Z,0
2023-04-18T02:55:07.000Z,0
2023-04-18T02:56:08.000Z,0
2023-04-18T02:57:09.000Z,0
2023-04-18T02:58:10.000Z,0
2023-04-18T02:59:10.000Z,0
2023-04-18T03:00:11.000Z,0
2023-04-18T03:01:12.000Z,0
2023-04-18T03:02:13.000Z,0
2023-04-18T03:03:13.000Z,0
2023-04-18T03:04:14.000Z,0
2023-04-18T03:05:15.000Z,0
2023-04-18T03:06:16.000Z,0
2023-04-18T03:07:16.000Z,0
2023-04-18T03:08:17.000Z,0
2023-04-18T03:09:18.000Z,0
2023-04-18T03:10:18.000Z,0
2023-04-18T03:11:19.000Z,0
2023-04-18T03:12:20.000Z,0
2023-04-18T03:13:21.000Z,0
2023-04-18T03:14:21.000Z,0
2023-04-18T03:15:22.000Z,0
2023-04-18T03:16:23.000Z,0
2023-04-18T03:17:24.000Z,0
2023-04-18T03:18:24.000Z,0
2023-04-18T03:19:25.000Z,0
2023-04-18T03:20:31.000Z,0
2023-04-18T03:21:32.000Z,0
2023-04-18T03:22:32.000Z,0
2023-04-18T03:23:33.000Z,0
2023-04-18T03:24:34.000Z,0
2023-04-18T03:25:35.000Z,0
2023-04-18T03:26:35.000Z,0
2023-04-18T03:27:36.000Z,0
2023-04-18T03:28:37.000Z,0
2023-04-18T03:29:38.000Z,0
2023-04-18T03:30:38.000Z,0
2023-04-18T03:31:39.000Z,0
2023-04-18T03:32:40.000Z,0
2023-04-18T03:33:41.000Z,0
2023-04-18T03:34:42.000Z,1
2023-04-18T03:35:42.000Z,1
2023-04-18T03:36:43.000Z,1
2023-04-18T03:37:44.000Z,0
2023-04-18T03:38:45.000Z,1
2023-04-18T03:39:45.000Z,2
2023-04-18T03:40:46.000Z,1
2023-04-18T03:41:47.000Z,2
2023-04-18T03:42:47.000Z,1
2023-04-18T03:43:48.000Z,2
2023-04-18T03:44:49.000Z,2
2023-04-18T03:45:50.000Z,3
2023-04-18T03:46:50.000Z,3
2023-04-18T03:47:51.000Z,4
2023-04-18T03:48:52.000Z,4
2023-04-18T03:49:53.000Z,5
2023-04-18T03:50:53.000Z,6
2023-04-18T03:51:54.000Z,7
2023-04-18T03:52:55.000Z,8
2023-04-18T03:53:56.000Z,9
2023-04-18T03:54:56.000Z,11
2023-04-18T03:55:57.000Z,12
2023-04-18T03:56:58.000Z,16
2023-04-18T03:57:59.000Z,20
2023-04-18T03:58:59.000Z,22
2023-04-18T04:00:00.000Z,32
2023-04-18T04:01:01.000Z,49
2023-04-18T04:02:02.000Z,59
2023-04-18T04:03:02.000Z,60
2023-04-18T04:04:03.000Z,68
2023-04-18T04:05:04.000Z,80
2023-04-18T04:06:05.000Z,78
2023-04-18T04:07:05.000Z,95
2023-04-18T04:08:06.000Z,123
2023-04-18T04:09:07.000Z,127
2023-04-18T04:10:07.000Z,141
2023-04-18T04:11:08.000Z,145
2023-04-18T04:12:09.000Z,160
2023-04-18T04:13:10.000Z,177
2023-04-18T04:14:11.000Z,186
2023-04-18T04:15:12.000Z,213
2023-04-18T04:16:12.000Z,228
2023-04-18T04:17:13.000Z,264
2023-04-18T04:18:14.000Z,279
2023-04-18T04:19:15.000Z,306
2023-04-18T04:20:15.000Z,349
2023-04-18T04:21:16.000Z,406
2023-04-18T04:22:17.000Z,416
2023-04-18T04:23:18.000Z,454
2023-04-18T04:24:18.000Z,546
2023-04-18T04:25:19.000Z,644
2023-04-18T04:26:20.000Z,572
2023-04-18T04:27:21.000Z,518
2023-04-18T04:28:22.000Z,574
2023-04-18T04:29:22.000Z,638
2023-04-18T04:30:23.000Z,704
2023-04-18T04:31:24.000Z,822
2023-04-18T04:32:25.000Z,949
2023-04-18T04:33:25.000Z,944
2023-04-18T04:34:26.000Z,1000
2023-04-18T04:35:27.000Z,1089
2023-04-18T04:36:28.000Z,990
2023-04-18T04:37:28.000Z,965
2023-04-18T04:38:29.000Z,792
2023-04-18T04:39:30.000Z,992
2023-04-18T04:40:31.000Z,1132
2023-04-18T04:41:31.000Z,1168
2023-04-18T04:42:32.000Z,1203
2023-04-18T04:43:33.000Z,1294
2023-04-18T04:44:33.000Z,1352
2023-04-18T04:45:34.000Z,1305
2023-04-18T04:46:35.000Z,1165
2023-04-18T04:47:36.000Z,1114
2023-04-18T04:48:37.000Z,1668
2023-04-18T04:49:37.000Z,1818
2023-04-18T04:50:38.000Z,1982
2023-04-18T04:51:39.000Z,1938
2023-04-18T04:52:40.000Z,1362
2023-04-18T04:53:40.000Z,1451
2023-04-18T04:54:41.000Z,1557
2023-04-18T04:55:42.000Z,1400
2023-04-18T04:56:43.000Z,1617
2023-04-18T04:57:43.000Z,1704
2023-04-18T04:58:44.000Z,1836
2023-04-18T04:59:45.000Z,1514
2023-04-18T05:00:45.000Z,1994
2023-04-18T05:01:46.000Z,1841
2023-04-18T05:02:47.000Z,2215
2023-04-18T05:03:48.000Z,2345
2023-04-18T05:04:48.000Z,2492
2023-04-18T05:05:49.000Z,2623
2023-04-18T05:06:50.000Z,2628
2023-04-18T05:07:51.000Z,2477
2023-04-18T05:08:51.000Z,2385
2023-04-18T05:09:52.000Z,2284
2023-04-18T05:10:53.000Z,2012
2023-04-18T05:11:53.000Z,1880
2023-04-18T05:12:54.000Z,2140
2023-04-18T05:13:55.000Z,2118
2023-04-18T05:14:56.000Z,2360
2023-04-18T05:15:57.000Z,2220
2023-04-18T05:16:57.000Z,2370
2023-04-18T05:17:58.000Z,2368
2023-04-18T05:18:59.000Z,2575
2023-04-18T05:20:00.000Z,2648
2023-04-18T05:21:00.000Z,2566
2023-04-18T05:22:01.000Z,2288
2023-04-18T05:23:02.000Z,2240
2023-04-18T05:24:03.000Z,2302
2023-04-18T05:25:03.000Z,2390
2023-04-18T05:26:04.000Z,2593
2023-04-18T05:27:05.000Z,2381
2023-04-18T05:28:06.000Z,2256
2023-04-18T05:29:06.000Z,2352
2023-04-18T05:30:07.000Z,2635
2023-04-18T05:31:08.000Z,3215
2023-04-18T05:32:09.000Z,3488
2023-04-18T05:33:09.000Z,3657
2023-04-18T05:34:10.000Z,3652
2023-04-18T05:35:16.000Z,4318
2023-04-18T05:36:16.000Z,4272
2023-04-18T05:37:17.000Z,4008
2023-04-18T05:38:18.000Z,4013
2023-04-18T05:39:19.000Z,4643
2023-04-18T05:40:19.000Z,4299
2023-04-18T05:41:20.000Z,4440
2023-04-18T05:42:21.000Z,4375
2023-04-18T05:43:22.000Z,3702
2023-04-18T05:44:22.000Z,3768
2023-04-18T05:45:23.000Z,3807
2023-04-18T05:46:24.000Z,4190
2023-04-18T05:47:25.000Z,4030
2023-04-18T05:48:25.000Z,3938
2023-04-18T05:49:26.000Z,4399
2023-04-18T05:50:27.000Z,4394
2023-04-18T05:51:28.000Z,4383
2023-04-18T05:52:29.000Z,4183
2023-04-18T05:53:29.000Z,4361
2023-04-18T05:54:30.000Z,4821
2023-04-18T05:55:31.000Z,4608
2023-04-18T05:56:31.000Z,4889
2023-04-18T05:57:32.000Z,5507
2023-04-18T05:58:33.000Z,6696
2023-04-18T05:59:34.000Z,7322
2023-04-18T06:00:35.000Z,8231
2023-04-18T06:01:35.000Z,9269
2023-04-18T06:02:36.000Z,9624
2023-04-18T06:03:37.000Z,9450
2023-04-18T06:04:38.000Z,7508
2023-04-18T06:05:38.000Z,7864
2023-04-18T06:06:39.000Z,8941
2023-04-18T06:07:40.000Z,11094
2023-04-18T06:08:41.000Z,11872
2023-04-18T06:09:41.000Z,11727
2023-04-18T06:10:42.000Z,12169
2023-04-18T06:11:43.000Z,10011
2023-04-18T06:12:44.000Z,8381
2023-04-18T06:13:44.000Z,10750
2023-04-18T06:14:45.000Z,11949
2023-04-18T06:15:46.000Z,11768
2023-04-18T06:16:47.000Z,14853
2023-04-18T06:17:48.000Z,16024
2023-04-18T06:18:48.000Z,11948
2023-04-18T06:19:49.000Z,8235
2023-04-18T06:20:50.000Z,6997
2023-04-18T06:21:51.000Z,6199
2023-04-18T06:22:51.000Z,5335
2023-04-18T06:23:52.000Z,5399
2023-04-18T06:24:53.000Z,5986
2023-04-18T06:25:54.000Z,10227
2023-04-18T06:26:54.000Z,11222
2023-04-18T06:27:55.000Z,10400
2023-04-18T06:28:56.000Z,9000
2023-04-18T06:29:57.000Z,7651
2023-04-18T06:30:57.000Z,6941
2023-04-18T06:31:58.000Z,7309
2023-04-18T06:32:59.000Z,8107
2023-04-18T06:34:00.000Z,8647
2023-04-18T06:35:01.000Z,8612
2023-04-18T06:36:01.000Z,9684
2023-04-18T06:37:02.000Z,12585
2023-04-18T06:38:03.000Z,15988
2023-04-18T06:39:03.000Z,15304
2023-04-18T06:40:04.000Z,14232
2023-04-18T06:41:05.000Z,12873
2023-04-18T06:42:06.000Z,10817
2023-04-18T06:43:06.000Z,9964
2023-04-18T06:44:07.000Z,9603
2023-04-18T06:45:08.000Z,8303
2023-04-18T06:46:09.000Z,8589
2023-04-18T06:47:09.000Z,8125
2023-04-18T06:48:10.000Z,8120
2023-04-18T06:49:11.000Z,8123
2023-04-18T06:50:12.000Z,6096
2023-04-18T06:51:12.000Z,5900
2023-04-18T06:52:13.000Z,6362
2023-04-18T06:53:14.000Z,6602
2023-04-18T06:54:15.000Z,6262
2023-04-18T06:55:15.000Z,6288
2023-04-18T06:56:16.000Z,6943
2023-04-18T06:57:17.000Z,7069
2023-04-18T06:58:18.000Z,8563
2023-04-18T06:59:18.000Z,8780
2023-04-18T07:00:19.000Z,8356
2023-04-18T07:01:20.000Z,8908
2023-04-18T07:02:21.000Z,8798
2023-04-18T07:03:21.000Z,9779
2023-04-18T07:04:22.000Z,10860
2023-04-18T07:05:23.000Z,10802
2023-04-18T07:06:24.000Z,12703
2023-04-18T07:07:24.000Z,13892
2023-04-18T07:08:25.000Z,14731
2023-04-18T07:09:26.000Z,15021
2023-04-18T07:10:27.000Z,15295
2023-04-18T07:11:27.000Z,15566
2023-04-18T07:12:28.000Z,16728
2023-04-18T07:13:29.000Z,14339
2023-04-18T07:14:29.000Z,15355
2023-04-18T07:15:30.000Z,15025
2023-04-18T07:16:31.000Z,14245
2023-04-18T07:17:32.000Z,13630
2023-04-18T07:18:32.000Z,13229
2023-04-18T07:19:33.000Z,13611
2023-04-18T07:20:34.000Z,13228
2023-04-18T07:21:35.000Z,12978
2023-04-18T07:22:35.000Z,14027
2023-04-18T07:23:36.000Z,15510
2023-04-18T07:24:42.000Z,15733
2023-04-18T07:25:43.000Z,15525
2023-04-18T07:26:43.000Z,14785
2023-04-18T07:27:44.000Z,14936
2023-04-18T07:28:45.000Z,15357
2023-04-18T07:29:46.000Z,15192
2023-04-18T07:30:46.000Z,14852
2023-04-18T07:31:47.000Z,14408
2023-04-18T07:32:48.000Z,14405
2023-04-18T07:33:49.000Z,13445
2023-04-18T07:34:50.000Z,13035
2023-04-18T07:35:50.000Z,13326
2023-04-18T07:36:51.000Z,13014
2023-04-18T07:37:52.000Z,15259
2023-04-18T07:38:53.000Z,14515
2023-04-18T07:39:53.000Z,13242
2023-04-18T07:40:54.000Z,12196
2023-04-18T07:41:55.000Z,11763
2023-04-18T07:42:55.000Z,13748
2023-04-18T07:43:56.000Z,12680
2023-04-18T07:44:57.000Z,15313
2023-04-18T07:45:58.000Z,15711
2023-04-18T07:46:59.000Z,16696
2023-04-18T07:47:59.000Z,14472
2023-04-18T07:49:00.000Z,12651
2023-04-18T07:50:01.000Z,12932
2023-04-18T07:51:01.000Z,12357
2023-04-18T07:52:02.000Z,11989
2023-04-18T07:53:03.000Z,11816
2023-04-18T07:54:04.000Z,12690
2023-04-18T07:55:04.000Z,11700
2023-04-18T07:56:05.000Z,12593
2023-04-18T07:57:06.000Z,13370
2023-04-18T07:58:07.000Z,12520
2023-04-18T07:59:07.000Z,11773
2023-04-18T08:00:08.000Z,12758
2023-04-18T08:01:09.000Z,13544
2023-04-18T08:02:10.000Z,13065
2023-04-18T08:03:10.000Z,12144
2023-04-18T08:04:11.000Z,12012
2023-04-18T08:05:12.000Z,11795
2023-04-18T08:06:12.000Z,12500
2023-04-18T08:07:13.000Z,12459
2023-04-18T08:08:14.000Z,13128
2023-04-18T08:09:15.000Z,14434
2023-04-18T08:10:15.000Z,15460
2023-04-18T08:11:16.000Z,16224
2023-04-18T08:12:17.000Z,17184
2023-04-18T08:13:18.000Z,16952
2023-04-18T08:14:18.000Z,16864
2023-04-18T08:15:19.000Z,17584
2023-04-18T08:16:20.000Z,18352
2023-04-18T08:17:21.000Z,19880
2023-04-18T08:18:21.000Z,22168
2023-04-18T08:19:22.000Z,23936
2023-04-18T08:20:23.000Z,21992
2023-04-18T08:21:24.000Z,19960
2023-04-18T08:22:24.000Z,19992
2023-04-18T08:23:25.000Z,21232
2023-04-18T08:24:26.000Z,21320
2023-04-18T08:25:27.000Z,20784
2023-04-18T08:26:27.000Z,20720
2023-04-18T08:27:28.000Z,19424
2023-04-18T08:28:29.000Z,18312
2023-04-18T08:29:30.000Z,17112
2023-04-18T08:30:30.000Z,15790
2023-04-18T08:31:31.000Z,14588
2023-04-18T08:32:32.000Z,13801
2023-04-18T08:33:33.000Z,13018
2023-04-18T08:34:33.000Z,12110
2023-04-18T08:35:34.000Z,12113
2023-04-18T08:36:35.000Z,11032
2023-04-18T08:37:36.000Z,10639
2023-04-18T08:38:36.000Z,11746
2023-04-18T08:39:37.000Z,11998
2023-04-18T08:40:38.000Z,11966
2023-04-18T08:41:39.000Z,11828
2023-04-18T08:42:39.000Z,12044
2023-04-18T08:43:40.000Z,11205
2023-04-18T08:44:41.000Z,10725
2023-04-18T08:45:42.000Z,10818
2023-04-18T08:46:42.000Z,11054
2023-04-18T08:47:43.000Z,11647
2023-04-18T08:48:44.000Z,11228
2023-04-18T08:49:45.000Z,11095
2023-04-18T08:50:45.000Z,11208
2023-04-18T08:51:46.000Z,11226
2023-04-18T08:52:47.000Z,11760
2023-04-18T08:53:48.000Z,12456
2023-04-18T08:54:48.000Z,12809
2023-04-18T08:55:49.000Z,13143
2023-04-18T08:56:50.000Z,12815
2023-04-18T08:57:51.000Z,12951
2023-04-18T08:58:51.000Z,12646
2023-04-18T08:59:53.000Z,13968
2023-04-18T09:00:54.000Z,13822
2023-04-18T09:01:54.000Z,14351
2023-04-18T09:02:55.000Z,14620
2023-04-18T09:03:56.000Z,14076
2023-04-18T09:04:57.000Z,14037
2023-04-18T09:05:57.000Z,14415
2023-04-18T09:06:58.000Z,14295
2023-04-18T09:07:59.000Z,13286
2023-04-18T09:09:00.000Z,13024
2023-04-18T09:10:00.000Z,12449
2023-04-18T09:11:01.000Z,11741
2023-04-18T09:12:02.000Z,13263
2023-04-18T09:13:03.000Z,14498
2023-04-18T09:14:03.000Z,14640
2023-04-18T09:15:04.000Z,14222
2023-04-18T09:16:05.000Z,13991
2023-04-18T09:17:06.000Z,14464
2023-04-18T09:18:06.000Z,13585
2023-04-18T09:19:07.000Z,14472
2023-04-18T09:20:08.000Z,16704
2023-04-18T09:21:09.000Z,16160
2023-04-18T09:22:10.000Z,16976
2023-04-18T09:23:10.000Z,16832
2023-04-18T09:24:11.000Z,17464
2023-04-18T09:25:12.000Z,17280
2023-04-18T09:26:14.000Z,16800
2023-04-18T09:27:14.000Z,17888
2023-04-18T09:28:15.000Z,17320
2023-04-18T09:29:16.000Z,16904
2023-04-18T09:30:16.000Z,17760
2023-04-18T09:31:17.000Z,19288
2023-04-18T09:32:18.000Z,19624
2023-04-18T09:33:19.000Z,19136
2023-04-18T09:34:19.000Z,19904
2023-04-18T09:35:20.000Z,21128
2023-04-18T09:36:21.000Z,20208
2023-04-18T09:37:22.000Z,19048
2023-04-18T09:38:22.000Z,20216
2023-04-18T09:39:23.000Z,22776
2023-04-18T09:40:24.000Z,23872
2023-04-18T09:41:25.000Z,23768
2023-04-18T09:42:25.000Z,30896
2023-04-18T09:43:26.000Z,34208
2023-04-18T09:44:27.000Z,28168
2023-04-18T09:45:28.000Z,26640
2023-04-18T09:46:28.000Z,30416
2023-04-18T09:47:29.000Z,27208
2023-04-18T09:48:30.000Z,22888
2023-04-18T09:49:31.000Z,20536
2023-04-18T09:50:31.000Z,20024
2023-04-18T09:51:32.000Z,18728
2023-04-18T09:52:33.000Z,19536
2023-04-18T09:53:34.000Z,20928
2023-04-18T09:54:34.000Z,23152
2023-04-18T09:55:35.000Z,27440
2023-04-18T09:56:36.000Z,28520
2023-04-18T09:57:37.000Z,31080
2023-04-18T09:58:37.000Z,34256
2023-04-18T09:59:38.000Z,29800
2023-04-18T10:00:39.000Z,25560
2023-04-18T10:01:40.000Z,22976
2023-04-18T10:02:40.000Z,22664
2023-04-18T10:03:41.000Z,21688
2023-04-18T10:04:42.000Z,20544
2023-04-18T10:05:43.000Z,20072
2023-04-18T10:06:46.000Z,19784
2023-04-18T10:07:47.000Z,19312
2023-04-18T10:08:48.000Z,19920
2023-04-18T10:09:48.000Z,22672
2023-04-18T10:10:49.000Z,24816
2023-04-18T10:11:50.000Z,24920
2023-04-18T10:12:51.000Z,27496
2023-04-18T10:13:52.000Z,27864
2023-04-18T10:14:52.000Z,28264
2023-04-18T10:15:53.000Z,29576
2023-04-18T10:16:54.000Z,30416
2023-04-18T10:17:55.000Z,31808
2023-04-18T10:18:55.000Z,32456
2023-04-18T10:19:56.000Z,32976
2023-04-18T10:20:57.000Z,34096
2023-04-18T10:21:58.000Z,35560
2023-04-18T10:22:58.000Z,37744
2023-04-18T10:23:59.000Z,39440
2023-04-18T10:25:00.000Z,41528
2023-04-18T10:26:01.000Z,41568
2023-04-18T10:27:02.000Z,38624
2023-04-18T10:28:02.000Z,36608
2023-04-18T10:29:03.000Z,35744
2023-04-18T10:30:04.000Z,33464
2023-04-18T10:31:04.000Z,33704
2023-04-18T10:32:05.000Z,34832
2023-04-18T10:33:06.000Z,33208
2023-04-18T10:34:07.000Z,29688
2023-04-18T10:35:07.000Z,27352
2023-04-18T10:36:08.000Z,26144
2023-04-18T10:37:14.000Z,24040
2023-04-18T10:38:15.000Z,25072
2023-04-18T10:39:15.000Z,26848
2023-04-18T10:40:16.000Z,27384
2023-04-18T10:41:17.000Z,28016
2023-04-18T10:42:18.000Z,24920
2023-04-18T10:43:19.000Z,20856
2023-04-18T10:44:19.000Z,20152
2023-04-18T10:45:20.000Z,21176
2023-04-18T10:46:21.000Z,19888
2023-04-18T10:47:22.000Z,20928
2023-04-18T10:48:22.000Z,23032
2023-04-18T10:49:23.000Z,27120
2023-04-18T10:50:24.000Z,33336
2023-04-18T10:51:25.000Z,41096
2023-04-18T10:52:26.000Z,41680
2023-04-18T10:53:26.000Z,39032
2023-04-18T10:54:27.000Z,29744
2023-04-18T10:55:28.000Z,27368
2023-04-18T10:56:29.000Z,26840
2023-04-18T10:57:29.000Z,29648
2023-04-18T10:58:30.000Z,31256
2023-04-18T10:59:31.000Z,26120
2023-04-18T11:00:32.000Z,23992
2023-04-18T11:01:32.000Z,24720
2023-04-18T11:02:33.000Z,24416
2023-04-18T11:03:34.000Z,24128
2023-04-18T11:04:34.000Z,26768
2023-04-18T11:05:35.000Z,28760
2023-04-18T11:06:36.000Z,27864
2023-04-18T11:07:37.000Z,31432
2023-04-18T11:08:38.000Z,38800
2023-04-18T11:09:39.000Z,32944
2023-04-18T11:10:39.000Z,28904
2023-04-18T11:11:40.000Z,24576
2023-04-18T11:12:41.000Z,19536
2023-04-18T11:13:42.000Z,16688
2023-04-18T11:14:43.000Z,14582
2023-04-18T11:15:43.000Z,15323
2023-04-18T11:16:44.000Z,15275
2023-04-18T11:17:45.000Z,14218
2023-04-18T11:18:46.000Z,13691
2023-04-18T11:19:46.000Z,14707
2023-04-18T11:20:47.000Z,17752
2023-04-18T11:21:48.000Z,20656
2023-04-18T11:22:49.000Z,19208
2023-04-18T11:23:50.000Z,16320
2023-04-18T11:24:51.000Z,15082
2023-04-18T11:25:51.000Z,13579
2023-04-18T11:26:52.000Z,13356
2023-04-18T11:27:53.000Z,12651
2023-04-18T11:28:54.000Z,12120
2023-04-18T11:29:55.000Z,13104
2023-04-18T11:30:56.000Z,14297
2023-04-18T11:31:56.000Z,14287
2023-04-18T11:32:57.000Z,13499
2023-04-18T11:33:58.000Z,11836
2023-04-18T11:34:59.000Z,10075
2023-04-18T11:36:00.000Z,10774
2023-04-18T11:37:00.000Z,12843
2023-04-18T11:38:01.000Z,14788
2023-04-18T11:39:02.000Z,15444
2023-04-18T11:40:02.000Z,15947
2023-04-18T11:41:03.000Z,16528
2023-04-18T11:42:04.000Z,13718
2023-04-18T11:43:06.000Z,11445
2023-04-18T11:44:07.000Z,8807
2023-04-18T11:45:08.000Z,8175
2023-04-18T11:46:08.000Z,9528
2023-04-18T11:47:09.000Z,9367
2023-04-18T11:48:10.000Z,9147
2023-04-18T11:49:11.000Z,8747
2023-04-18T11:50:11.000Z,11001
2023-04-18T11:51:12.000Z,13075
2023-04-18T11:52:13.000Z,13420
2023-04-18T11:53:14.000Z,12965
2023-04-18T11:54:14.000Z,15824
2023-04-18T11:55:15.000Z,13400
2023-04-18T11:56:16.000Z,10775
2023-04-18T11:57:17.000Z,11090
2023-04-18T11:58:17.000Z,13170
2023-04-18T11:59:18.000Z,15635
2023-04-18T12:00:19.000Z,19672
2023-04-18T12:01:20.000Z,21608
2023-04-18T12:02:20.000Z,17336
2023-04-18T12:03:21.000Z,13592
2023-04-18T12:04:22.000Z,11412
2023-04-18T12:05:28.000Z,10576
2023-04-18T12:06:29.000Z,8996
2023-04-18T12:07:30.000Z,8414
2023-04-18T12:08:30.000Z,8150
2023-04-18T12:09:31.000Z,7838
2023-04-18T12:10:32.000Z,7684
2023-04-18T12:11:33.000Z,7832
2023-04-18T12:12:33.000Z,6749
2023-04-18T12:13:34.000Z,5962
2023-04-18T12:14:35.000Z,6657
2023-04-18T12:15:36.000Z,7637
2023-04-18T12:16:37.000Z,7504
2023-04-18T12:17:37.000Z,7039
2023-04-18T12:18:38.000Z,6975
2023-04-18T12:19:39.000Z,6863
2023-04-18T12:20:40.000Z,6445
2023-04-18T12:21:40.000Z,5824
2023-04-18T12:22:41.000Z,5091
2023-04-18T12:23:42.000Z,4757
2023-04-18T12:24:43.000Z,4661
2023-04-18T12:25:43.000Z,4937
2023-04-18T12:26:44.000Z,5054
2023-04-18T12:27:45.000Z,4893
2023-04-18T12:28:46.000Z,4907
2023-04-18T12:29:47.000Z,5371
2023-04-18T12:30:47.000Z,5748
2023-04-18T12:31:48.000Z,5824
2023-04-18T12:32:49.000Z,5640
2023-04-18T12:33:50.000Z,5470
2023-04-18T12:34:50.000Z,5580
2023-04-18T12:35:51.000Z,5557
2023-04-18T12:36:52.000Z,5378
2023-04-18T12:37:53.000Z,5146
2023-04-18T12:38:53.000Z,5130
2023-04-18T12:39:54.000Z,5137
2023-04-18T12:40:55.000Z,4917
2023-04-18T12:41:56.000Z,4825
2023-04-18T12:42:57.000Z,4885
2023-04-18T12:43:58.000Z,5041
2023-04-18T12:44:59.000Z,5268
2023-04-18T12:46:00.000Z,5430
2023-04-18T12:47:01.000Z,5889
2023-04-18T12:48:01.000Z,6566
2023-04-18T12:49:02.000Z,6868
2023-04-18T12:50:03.000Z,7171
2023-04-18T12:51:04.000Z,7489
2023-04-18T12:52:04.000Z,7833
2023-04-18T12:53:05.000Z,8162
2023-04-18T12:54:06.000Z,8420
2023-04-18T12:55:07.000Z,8754
2023-04-18T12:56:08.000Z,8458
2023-04-18T12:57:08.000Z,8023
2023-04-18T12:58:09.000Z,8117
2023-04-18T12:59:10.000Z,7675
2023-04-18T13:00:11.000Z,6450
2023-04-18T13:01:11.000Z,5238
2023-04-18T13:02:12.000Z,5161
2023-04-18T13:03:13.000Z,4765
2023-04-18T13:04:14.000Z,4507
2023-04-18T13:05:14.000Z,4329
2023-04-18T13:06:15.000Z,4252
2023-04-18T13:07:16.000Z,4072
2023-04-18T13:08:17.000Z,3749
2023-04-18T13:09:17.000Z,3877
2023-04-18T13:10:18.000Z,4036
2023-04-18T13:11:19.000Z,4171
2023-04-18T13:12:20.000Z,3948
2023-04-18T13:13:20.000Z,3889
2023-04-18T13:14:21.000Z,3993
2023-04-18T13:15:22.000Z,3993
2023-04-18T13:16:23.000Z,3880
2023-04-18T13:17:23.000Z,4110
2023-04-18T13:18:24.000Z,4493
2023-04-18T13:19:25.000Z,4779
2023-04-18T13:20:26.000Z,5136
2023-04-18T13:21:27.000Z,5072
2023-04-18T13:22:27.000Z,5050
2023-04-18T13:23:28.000Z,5066
2023-04-18T13:24:29.000Z,5111
2023-04-18T13:25:30.000Z,5207
2023-04-18T13:26:35.000Z,5447
2023-04-18T13:27:36.000Z,5214
2023-04-18T13:28:37.000Z,4995
2023-04-18T13:29:38.000Z,4987
2023-04-18T13:30:39.000Z,4853
2023-04-18T13:31:39.000Z,4767
2023-04-18T13:32:40.000Z,4563
2023-04-18T13:33:41.000Z,4396
2023-04-18T13:34:42.000Z,4706
2023-04-18T13:35:43.000Z,4989
2023-04-18T13:36:43.000Z,5182
2023-04-18T13:37:44.000Z,5276
2023-04-18T13:38:45.000Z,5416
2023-04-18T13:39:46.000Z,5553
2023-04-18T13:40:46.000Z,5704
2023-04-18T13:41:47.000Z,5707
2023-04-18T13:42:48.000Z,5609
2023-04-18T13:43:49.000Z,5592
2023-04-18T13:44:50.000Z,5842